sensor_id;sensor_type;location;lat;lon;timestamp;pressure;altitude;pressure_sealevel;temperature;humidity
75972;BME280;64651;47.540;19.088;2023-12-22T00:00:19;97966.78;;;20.64;43.35
75972;BME280;64651;47.540;19.088;2023-12-22T00:05:22;97972.78;;;20.66;43.31
75972;BME280;64651;47.540;19.088;2023-12-22T00:10:24;97962.38;;;20.63;43.40
75972;BME280;64651;47.540;19.088;2023-12-22T00:15:27;97978.00;;;20.60;43.50
75972;BME280;64651;47.540;19.088;2023-12-22T00:20:30;97983.56;;;20.64;43.61
75972;BME280;64651;47.540;19.088;2023-12-22T00:25:32;98005.09;;;20.63;43.50
75972;BME280;64651;47.540;19.088;2023-12-22T00:30:34;98009.53;;;20.61;43.47
75972;BME280;64651;47.540;19.088;2023-12-22T00:35:36;98032.28;;;20.59;43.57
75972;BME280;64651;47.540;19.088;2023-12-22T00:40:39;98038.25;;;20.65;43.38
75972;BME280;64651;47.540;19.088;2023-12-22T00:45:41;98075.38;;;20.65;43.24
75972;BME280;64651;47.540;19.088;2023-12-22T00:50:44;98059.78;;;20.64;42.94
75972;BME280;64651;47.540;19.088;2023-12-22T00:55:46;98068.19;;;20.64;43.37
75972;BME280;64651;47.540;19.088;2023-12-22T01:00:48;98091.34;;;20.65;43.28
75972;BME280;64651;47.540;19.088;2023-12-22T01:05:50;98079.34;;;20.64;43.36
75972;BME280;64651;47.540;19.088;2023-12-22T01:10:53;98041.44;;;20.63;43.28
75972;BME280;64651;47.540;19.088;2023-12-22T01:15:55;98018.69;;;20.65;43.25
75972;BME280;64651;47.540;19.088;2023-12-22T01:20:57;98052.22;;;20.65;42.95
75972;BME280;64651;47.540;19.088;2023-12-22T01:25:59;98063.78;;;20.67;43.11
75972;BME280;64651;47.540;19.088;2023-12-22T01:31:02;98074.97;;;20.63;43.03
75972;BME280;64651;47.540;19.088;2023-12-22T01:36:05;98088.53;;;20.65;43.09
75972;BME280;64651;47.540;19.088;2023-12-22T01:41:07;98092.91;;;20.62;43.23
75972;BME280;64651;47.540;19.088;2023-12-22T01:46:11;98074.56;;;20.61;43.27
75972;BME280;64651;47.540;19.088;2023-12-22T01:51:14;98065.41;;;20.61;43.12
75972;BME280;64651;47.540;19.088;2023-12-22T01:56:16;98072.16;;;20.63;43.08
75972;BME280;64651;47.540;19.088;2023-12-22T02:01:20;98069.38;;;20.67;43.18
75972;BME280;64651;47.540;19.088;2023-12-22T02:06:22;98051.41;;;20.64;42.82
75972;BME280;64651;47.540;19.088;2023-12-22T02:11:25;98004.31;;;20.67;42.75
75972;BME280;64651;47.540;19.088;2023-12-22T02:16:50;98001.50;;;20.67;42.68
75972;BME280;64651;47.540;19.088;2023-12-22T02:22:04;97993.53;;;20.65;42.77
75972;BME280;64651;47.540;19.088;2023-12-22T02:32:34;97979.16;;;20.67;42.77
75972;BME280;64651;47.540;19.088;2023-12-22T02:37:39;97986.34;;;20.64;42.65
75972;BME280;64651;47.540;19.088;2023-12-22T02:42:42;97981.53;;;20.68;42.33
75972;BME280;64651;47.540;19.088;2023-12-22T02:47:46;98043.84;;;20.65;42.55
75972;BME280;64651;47.540;19.088;2023-12-22T02:52:49;98034.25;;;20.66;42.48
75972;BME280;64651;47.540;19.088;2023-12-22T02:57:51;98049.03;;;20.67;42.45
75972;BME280;64651;47.540;19.088;2023-12-22T03:02:53;98026.63;;;20.70;42.46
75972;BME280;64651;47.540;19.088;2023-12-22T03:07:56;98004.72;;;20.65;42.50
75972;BME280;64651;47.540;19.088;2023-12-22T03:12:58;98034.25;;;20.66;42.40
75972;BME280;64651;47.540;19.088;2023-12-22T03:18:00;98023.06;;;20.66;42.60
75972;BME280;64651;47.540;19.088;2023-12-22T03:23:03;98025.06;;;20.65;42.52
75972;BME280;64651;47.540;19.088;2023-12-22T03:28:05;98038.62;;;20.67;42.17
75972;BME280;64651;47.540;19.088;2023-12-22T03:33:07;98069.75;;;20.69;42.28
75972;BME280;64651;47.540;19.088;2023-12-22T03:38:09;98065.00;;;20.66;42.02
75972;BME280;64651;47.540;19.088;2023-12-22T03:43:12;98097.31;;;20.67;41.84
75972;BME280;64651;47.540;19.088;2023-12-22T03:48:14;98102.09;;;20.63;41.96
75972;BME280;64651;47.540;19.088;2023-12-22T03:53:16;98096.53;;;20.67;42.02
75972;BME280;64651;47.540;19.088;2023-12-22T03:58:18;98107.31;;;20.64;42.04
75972;BME280;64651;47.540;19.088;2023-12-22T04:03:20;98113.69;;;20.72;41.89
75972;BME280;64651;47.540;19.088;2023-12-22T04:08:22;98131.63;;;20.67;41.99
75972;BME280;64651;47.540;19.088;2023-12-22T04:13:25;98128.47;;;20.65;41.93
75972;BME280;64651;47.540;19.088;2023-12-22T04:18:27;98137.22;;;20.67;41.77
75972;BME280;64651;47.540;19.088;2023-12-22T04:23:29;98141.63;;;20.69;42.08
75972;BME280;64651;47.540;19.088;2023-12-22T04:28:31;98153.19;;;20.71;41.79
75972;BME280;64651;47.540;19.088;2023-12-22T04:33:33;98175.53;;;20.74;41.60
75972;BME280;64651;47.540;19.088;2023-12-22T04:38:35;98201.50;;;20.75;41.64
75972;BME280;64651;47.540;19.088;2023-12-22T04:43:38;98203.13;;;20.72;41.63
75972;BME280;64651;47.540;19.088;2023-12-22T04:48:40;98180.34;;;20.74;41.70
75972;BME280;64651;47.540;19.088;2023-12-22T04:53:42;98167.16;;;20.74;41.52
75972;BME280;64651;47.540;19.088;2023-12-22T04:58:44;98188.31;;;20.75;41.57
75972;BME280;64651;47.540;19.088;2023-12-22T05:03:47;98182.72;;;20.75;41.44
75972;BME280;64651;47.540;19.088;2023-12-22T05:08:49;98195.09;;;20.74;41.60
75972;BME280;64651;47.540;19.088;2023-12-22T05:13:51;98198.69;;;20.75;41.46
75972;BME280;64651;47.540;19.088;2023-12-22T05:18:54;98196.34;;;20.73;41.43
75972;BME280;64651;47.540;19.088;2023-12-22T05:23:56;98201.91;;;20.77;41.44
75972;BME280;64651;47.540;19.088;2023-12-22T05:28:58;98208.31;;;20.74;41.57
75972;BME280;64651;47.540;19.088;2023-12-22T05:34:01;98213.09;;;20.77;41.36
75972;BME280;64651;47.540;19.088;2023-12-22T05:39:03;98231.47;;;20.78;41.45
75972;BME280;64651;47.540;19.088;2023-12-22T05:44:05;98236.25;;;20.74;41.22
75972;BME280;64651;47.540;19.088;2023-12-22T05:49:10;98240.63;;;20.75;41.32
75972;BME280;64651;47.540;19.088;2023-12-22T05:54:12;98230.66;;;20.74;41.30
75972;BME280;64651;47.540;19.088;2023-12-22T05:59:14;98229.44;;;20.75;41.02
75972;BME280;64651;47.540;19.088;2023-12-22T06:04:17;98241.06;;;20.73;41.08
75972;BME280;64651;47.540;19.088;2023-12-22T06:09:19;98236.66;;;20.72;41.07
75972;BME280;64651;47.540;19.088;2023-12-22T06:14:22;98265.00;;;20.71;40.82
75972;BME280;64651;47.540;19.088;2023-12-22T06:19:24;98265.00;;;20.71;40.87
75972;BME280;64651;47.540;19.088;2023-12-22T06:24:30;98285.75;;;20.73;40.83
75972;BME280;64651;47.540;19.088;2023-12-22T06:29:33;98288.56;;;20.73;41.04
75972;BME280;64651;47.540;19.088;2023-12-22T06:34:35;98309.69;;;20.74;40.77
75972;BME280;64651;47.540;19.088;2023-12-22T06:39:38;98300.53;;;20.74;41.01
75972;BME280;64651;47.540;19.088;2023-12-22T06:44:43;98326.06;;;20.76;40.56
75972;BME280;64651;47.540;19.088;2023-12-22T06:49:45;98324.91;;;20.73;40.49
75972;BME280;64651;47.540;19.088;2023-12-22T06:54:48;98330.88;;;20.72;40.44
75972;BME280;64651;47.540;19.088;2023-12-22T06:59:50;98333.66;;;20.72;40.47
75972;BME280;64651;47.540;19.088;2023-12-22T07:10:11;98340.84;;;20.76;40.46
75972;BME280;64651;47.540;19.088;2023-12-22T07:15:14;98349.63;;;20.75;40.31
75972;BME280;64651;47.540;19.088;2023-12-22T07:20:17;98349.63;;;20.71;40.47
75972;BME280;64651;47.540;19.088;2023-12-22T07:25:19;98350.03;;;20.70;40.22
75972;BME280;64651;47.540;19.088;2023-12-22T07:30:21;98354.00;;;20.69;40.45
75972;BME280;64651;47.540;19.088;2023-12-22T07:35:24;98352.03;;;20.69;40.28
75972;BME280;64651;47.540;19.088;2023-12-22T07:40:26;98356.81;;;20.69;40.53
75972;BME280;64651;47.540;19.088;2023-12-22T07:45:28;98358.41;;;20.66;40.59
75972;BME280;64651;47.540;19.088;2023-12-22T07:50:31;98370.78;;;20.69;40.41
75972;BME280;64651;47.540;19.088;2023-12-22T07:55:34;98374.00;;;20.71;40.25
75972;BME280;64651;47.540;19.088;2023-12-22T08:00:37;98376.78;;;20.67;40.35
75972;BME280;64651;47.540;19.088;2023-12-22T08:05:39;98370.78;;;20.69;40.46
75972;BME280;64651;47.540;19.088;2023-12-22T08:10:41;98377.19;;;20.73;40.24
75972;BME280;64651;47.540;19.088;2023-12-22T08:15:43;98372.00;;;20.71;40.12
75972;BME280;64651;47.540;19.088;2023-12-22T08:20:46;98364.81;;;20.74;39.75
75972;BME280;64651;47.540;19.088;2023-12-22T08:25:52;98387.19;;;20.74;39.57
75972;BME280;64651;47.540;19.088;2023-12-22T08:30:54;98385.97;;;20.75;39.88
75972;BME280;64651;47.540;19.088;2023-12-22T08:35:57;98399.94;;;20.75;39.72
75972;BME280;64651;47.540;19.088;2023-12-22T08:40:59;98385.59;;;20.73;39.96
75972;BME280;64651;47.540;19.088;2023-12-22T08:46:06;98406.34;;;20.72;39.60
75972;BME280;64651;47.540;19.088;2023-12-22T08:51:08;98407.94;;;20.73;39.82
75972;BME280;64651;47.540;19.088;2023-12-22T08:56:10;98417.91;;;20.70;40.12
75972;BME280;64651;47.540;19.088;2023-12-22T09:01:15;98426.69;;;20.69;39.93
75972;BME280;64651;47.540;19.088;2023-12-22T09:06:20;98430.66;;;20.67;39.54
75972;BME280;64651;47.540;19.088;2023-12-22T09:11:23;98420.72;;;20.74;39.57
75972;BME280;64651;47.540;19.088;2023-12-22T09:16:25;98427.09;;;20.71;39.59
75972;BME280;64651;47.540;19.088;2023-12-22T09:21:27;98407.13;;;20.69;39.27
75972;BME280;64651;47.540;19.088;2023-12-22T09:26:29;98415.13;;;20.67;39.28
75972;BME280;64651;47.540;19.088;2023-12-22T09:31:32;98404.31;;;20.69;39.64
75972;BME280;64651;47.540;19.088;2023-12-22T09:36:35;98401.53;;;20.69;39.42
75972;BME280;64651;47.540;19.088;2023-12-22T09:41:37;98388.75;;;20.67;39.65
75972;BME280;64651;47.540;19.088;2023-12-22T09:46:40;98392.34;;;20.68;39.45
75972;BME280;64651;47.540;19.088;2023-12-22T09:51:43;98411.91;;;20.68;39.33
75972;BME280;64651;47.540;19.088;2023-12-22T09:56:47;98405.50;;;20.67;39.69
75972;BME280;64651;47.540;19.088;2023-12-22T10:01:50;98415.13;;;20.67;40.16
75972;BME280;64651;47.540;19.088;2023-12-22T10:06:53;98437.50;;;20.74;39.57
75972;BME280;64651;47.540;19.088;2023-12-22T10:23:04;98409.22;;;21.50;38.23
75972;BME280;64651;47.540;19.088;2023-12-22T10:28:10;98409.22;;;21.50;38.23
75972;BME280;64651;47.540;19.088;2023-12-22T10:33:13;98389.97;;;20.81;39.26
75972;BME280;64651;47.540;19.088;2023-12-22T10:38:20;98384.38;;;20.81;39.50
75972;BME280;64651;47.540;19.088;2023-12-22T10:43:24;98380.41;;;20.82;39.26
75972;BME280;64651;47.540;19.088;2023-12-22T10:48:28;98369.63;;;20.87;39.70
75972;BME280;64651;47.540;19.088;2023-12-22T10:53:30;98358.44;;;20.91;39.78
75972;BME280;64651;47.540;19.088;2023-12-22T10:58:33;98357.66;;;21.12;38.99
75972;BME280;64651;47.540;19.088;2023-12-22T11:03:39;98335.69;;;21.03;38.88
75972;BME280;64651;47.540;19.088;2023-12-22T11:08:43;98365.66;;;21.10;38.38
75972;BME280;64651;47.540;19.088;2023-12-22T11:13:46;98367.28;;;21.21;38.76
75972;BME280;64651;47.540;19.088;2023-12-22T11:18:49;98380.06;;;21.26;38.18
75972;BME280;64651;47.540;19.088;2023-12-22T11:23:54;98358.47;;;21.30;38.82
75972;BME280;64651;47.540;19.088;2023-12-22T11:28:57;98358.88;;;21.35;38.55
75972;BME280;64651;47.540;19.088;2023-12-22T11:34:02;98344.88;;;21.39;38.49
75972;BME280;64651;47.540;19.088;2023-12-22T11:39:13;98340.88;;;21.43;37.77
75972;BME280;64651;47.540;19.088;2023-12-22T11:44:16;98331.69;;;21.43;37.74
75972;BME280;64651;47.540;19.088;2023-12-22T11:49:18;98332.09;;;21.34;37.97
75972;BME280;64651;47.540;19.088;2023-12-22T11:54:47;98338.09;;;21.36;38.56
75972;BME280;64651;47.540;19.088;2023-12-22T11:59:49;98355.28;;;21.38;37.91
75972;BME280;64651;47.540;19.088;2023-12-22T12:04:53;98342.06;;;21.35;38.13
75972;BME280;64651;47.540;19.088;2023-12-22T12:09:55;98335.28;;;21.40;38.79
75972;BME280;64651;47.540;19.088;2023-12-22T12:14:58;98385.25;;;21.38;39.13
75972;BME280;64651;47.540;19.088;2023-12-22T12:20:10;98372.84;;;21.42;40.23
75972;BME280;64651;47.540;19.088;2023-12-22T12:25:12;98361.66;;;21.46;40.45
75972;BME280;64651;47.540;19.088;2023-12-22T12:30:27;98362.47;;;21.43;40.16
75972;BME280;64651;47.540;19.088;2023-12-22T12:35:29;98368.06;;;21.47;40.12
75972;BME280;64651;47.540;19.088;2023-12-22T12:40:32;98363.25;;;21.47;39.89
75972;BME280;64651;47.540;19.088;2023-12-22T12:45:37;98340.88;;;21.43;39.17
75972;BME280;64651;47.540;19.088;2023-12-22T12:50:39;98347.28;;;21.40;39.51
75972;BME280;64651;47.540;19.088;2023-12-22T12:55:41;98416.81;;;21.42;38.96
75972;BME280;64651;47.540;19.088;2023-12-22T13:00:43;98426.41;;;21.41;39.77
75972;BME280;64651;47.540;19.088;2023-12-22T13:05:46;98420.03;;;21.37;40.41
75972;BME280;64651;47.540;19.088;2023-12-22T13:10:48;98433.63;;;21.38;40.40
75972;BME280;64651;47.540;19.088;2023-12-22T13:15:50;98448.00;;;21.37;40.18
75972;BME280;64651;47.540;19.088;2023-12-22T13:20:53;98489.19;;;21.40;40.54
75972;BME280;64651;47.540;19.088;2023-12-22T13:25:55;98458.00;;;21.38;40.37
75972;BME280;64651;47.540;19.088;2023-12-22T13:30:58;98411.62;;;21.37;39.99
75972;BME280;64651;47.540;19.088;2023-12-22T13:36:00;98402.84;;;21.38;39.87
75972;BME280;64651;47.540;19.088;2023-12-22T13:41:02;98400.03;;;21.38;40.08
75972;BME280;64651;47.540;19.088;2023-12-22T13:46:05;98378.47;;;21.32;40.14
75972;BME280;64651;47.540;19.088;2023-12-22T13:51:09;98381.25;;;21.35;40.27
75972;BME280;64651;47.540;19.088;2023-12-22T13:56:11;98370.47;;;21.34;40.20
75972;BME280;64651;47.540;19.088;2023-12-22T14:01:15;98368.84;;;21.36;40.65
75972;BME280;64651;47.540;19.088;2023-12-22T14:06:18;98367.25;;;21.35;40.62
75972;BME280;64651;47.540;19.088;2023-12-22T14:11:21;98353.69;;;21.37;40.61
75972;BME280;64651;47.540;19.088;2023-12-22T14:16:23;98364.88;;;21.37;40.32
75972;BME280;64651;47.540;19.088;2023-12-22T14:21:28;98400.84;;;21.32;39.61
75972;BME280;64651;47.540;19.088;2023-12-22T14:26:30;98401.22;;;21.30;40.20
75972;BME280;64651;47.540;19.088;2023-12-22T14:31:32;98401.22;;;21.30;40.33
75972;BME280;64651;47.540;19.088;2023-12-22T14:36:34;98393.66;;;21.31;40.17
75972;BME280;64651;47.540;19.088;2023-12-22T14:41:37;98370.47;;;21.27;40.30
75972;BME280;64651;47.540;19.088;2023-12-22T14:46:39;98381.28;;;21.28;40.99
75972;BME280;64651;47.540;19.088;2023-12-22T14:51:42;98396.84;;;21.29;41.87
75972;BME280;64651;47.540;19.088;2023-12-22T14:56:45;98430.41;;;21.29;41.79
75972;BME280;64651;47.540;19.088;2023-12-22T15:01:47;98437.59;;;21.30;42.53
75972;BME280;64651;47.540;19.088;2023-12-22T15:06:51;98458.78;;;21.31;43.04
75972;BME280;64651;47.540;19.088;2023-12-22T15:12:02;98462.00;;;21.26;43.29
75972;BME280;64651;47.540;19.088;2023-12-22T15:17:05;98455.19;;;21.27;43.04
75972;BME280;64651;47.540;19.088;2023-12-22T15:22:08;98413.63;;;21.26;43.78
75972;BME280;64651;47.540;19.088;2023-12-22T15:27:12;98417.22;;;21.26;44.77
75972;BME280;64651;47.540;19.088;2023-12-22T15:32:14;98475.97;;;21.16;45.84
75972;BME280;64651;47.540;19.088;2023-12-22T15:37:16;98487.09;;;21.01;45.06
75972;BME280;64651;47.540;19.088;2023-12-22T15:42:19;98470.66;;;20.93;44.27
75972;BME280;64651;47.540;19.088;2023-12-22T15:47:21;98477.47;;;20.85;42.98
75972;BME280;64651;47.540;19.088;2023-12-22T15:52:23;98476.63;;;20.81;41.44
75972;BME280;64651;47.540;19.088;2023-12-22T15:57:25;98487.41;;;20.75;40.68
75972;BME280;64651;47.540;19.088;2023-12-22T16:02:27;98513.31;;;20.69;39.85
75972;BME280;64651;47.540;19.088;2023-12-22T16:07:29;98535.25;;;20.59;39.09
75972;BME280;64651;47.540;19.088;2023-12-22T16:12:35;98514.84;;;20.55;38.60
75972;BME280;64651;47.540;19.088;2023-12-22T16:17:37;98520.84;;;20.57;37.35
75972;BME280;64651;47.540;19.088;2023-12-22T16:22:39;98506.91;;;20.61;35.58
75972;BME280;64651;47.540;19.088;2023-12-22T16:27:42;98524.13;;;20.70;35.70
75972;BME280;64651;47.540;19.088;2023-12-22T16:32:44;98518.16;;;20.79;36.02
75972;BME280;64651;47.540;19.088;2023-12-22T16:37:46;98509.41;;;20.84;36.89
75972;BME280;64651;47.540;19.088;2023-12-22T16:42:49;98507.81;;;20.90;37.25
75972;BME280;64651;47.540;19.088;2023-12-22T16:47:51;98495.03;;;20.89;37.73
75972;BME280;64651;47.540;19.088;2023-12-22T16:52:53;98491.47;;;20.92;38.09
75972;BME280;64651;47.540;19.088;2023-12-22T16:57:57;98503.03;;;20.94;38.27
75972;BME280;64651;47.540;19.088;2023-12-22T17:02:59;98512.59;;;20.93;38.22
75972;BME280;64651;47.540;19.088;2023-12-22T17:08:02;98507.44;;;20.91;38.43
75972;BME280;64651;47.540;19.088;2023-12-22T17:13:06;98507.81;;;20.93;38.47
75972;BME280;64651;47.540;19.088;2023-12-22T17:18:09;98510.22;;;20.95;38.41
75972;BME280;64651;47.540;19.088;2023-12-22T17:23:12;98509.03;;;20.96;38.41
75972;BME280;64651;47.540;19.088;2023-12-22T17:28:14;98492.69;;;20.98;38.50
75972;BME280;64651;47.540;19.088;2023-12-22T17:33:16;98505.84;;;20.97;38.55
75972;BME280;64651;47.540;19.088;2023-12-22T17:38:18;98519.03;;;21.00;38.80
75972;BME280;64651;47.540;19.088;2023-12-22T17:43:21;98533.03;;;21.04;38.95
75972;BME280;64651;47.540;19.088;2023-12-22T17:48:23;98532.63;;;21.02;38.91
75972;BME280;64651;47.540;19.088;2023-12-22T17:53:25;98526.62;;;21.00;39.24
75972;BME280;64651;47.540;19.088;2023-12-22T17:58:28;98510.66;;;21.00;39.57
75972;BME280;64651;47.540;19.088;2023-12-22T18:03:30;98497.88;;;21.03;39.77
75972;BME280;64651;47.540;19.088;2023-12-22T18:08:32;98495.84;;;21.00;39.69
75972;BME280;64651;47.540;19.088;2023-12-22T18:13:34;98506.28;;;21.03;39.75
75972;BME280;64651;47.540;19.088;2023-12-22T18:18:37;98506.28;;;21.03;39.78
75972;BME280;64651;47.540;19.088;2023-12-22T18:23:41;98518.25;;;21.03;39.71
75972;BME280;64651;47.540;19.088;2023-12-22T18:28:47;98529.84;;;21.02;40.08
75972;BME280;64651;47.540;19.088;2023-12-22T18:33:49;98530.25;;;21.04;40.06
75972;BME280;64651;47.540;19.088;2023-12-22T18:38:51;98558.22;;;21.04;40.03
75972;BME280;64651;47.540;19.088;2023-12-22T18:43:54;98568.59;;;21.03;40.23
75972;BME280;64651;47.540;19.088;2023-12-22T18:48:56;98566.19;;;21.02;40.02
75972;BME280;64651;47.540;19.088;2023-12-22T18:53:58;98558.97;;;21.01;39.76
75972;BME280;64651;47.540;19.088;2023-12-22T18:59:00;98547.00;;;21.00;40.69
75972;BME280;64651;47.540;19.088;2023-12-22T19:04:02;98531.81;;;21.01;41.26
75972;BME280;64651;47.540;19.088;2023-12-22T19:09:05;98524.19;;;20.88;41.95
75972;BME280;64651;47.540;19.088;2023-12-22T19:14:07;98487.81;;;20.74;41.67
75972;BME280;64651;47.540;19.088;2023-12-22T19:19:09;98486.97;;;20.66;40.99
75972;BME280;64651;47.540;19.088;2023-12-22T19:24:11;98453.44;;;20.66;38.67
75972;BME280;64651;47.540;19.088;2023-12-22T19:29:13;98436.69;;;20.77;38.03
75972;BME280;64651;47.540;19.088;2023-12-22T19:34:16;98429.94;;;20.85;38.49
75972;BME280;64651;47.540;19.088;2023-12-22T19:39:20;98438.72;;;20.87;39.35
75972;BME280;64651;47.540;19.088;2023-12-22T19:44:22;98455.84;;;20.75;39.48
75972;BME280;64651;47.540;19.088;2023-12-22T19:49:24;98444.66;;;20.71;39.38
75972;BME280;64651;47.540;19.088;2023-12-22T19:54:27;98425.47;;;20.62;39.20
75972;BME280;64651;47.540;19.088;2023-12-22T19:59:29;98426.66;;;20.58;39.21
75972;BME280;64651;47.540;19.088;2023-12-22T20:04:31;98424.63;;;20.51;38.76
75972;BME280;64651;47.540;19.088;2023-12-22T20:09:33;98439.37;;;20.45;38.55
75972;BME280;64651;47.540;19.088;2023-12-22T20:14:36;98435.78;;;20.41;38.52
75972;BME280;64651;47.540;19.088;2023-12-22T20:19:38;98454.91;;;20.39;38.16
75972;BME280;64651;47.540;19.088;2023-12-22T20:24:40;98455.28;;;20.37;37.81
75972;BME280;64651;47.540;19.088;2023-12-22T20:29:42;98451.69;;;20.33;37.45
75972;BME280;64651;47.540;19.088;2023-12-22T20:34:45;98455.69;;;20.32;37.37
75972;BME280;64651;47.540;19.088;2023-12-22T20:39:47;98458.06;;;20.30;37.05
75972;BME280;64651;47.540;19.088;2023-12-22T20:44:49;98440.44;;;20.22;36.77
75972;BME280;64651;47.540;19.088;2023-12-22T20:49:52;98428.09;;;20.27;35.85
75972;BME280;64651;47.540;19.088;2023-12-22T20:54:54;98408.59;;;20.34;35.48
75972;BME280;64651;47.540;19.088;2023-12-22T20:59:56;98417.03;;;20.41;35.84
75972;BME280;64651;47.540;19.088;2023-12-22T21:04:59;98401.88;;;20.46;36.00
75972;BME280;64651;47.540;19.088;2023-12-22T21:10:01;98397.88;;;20.50;36.42
75972;BME280;64651;47.540;19.088;2023-12-22T21:15:04;98388.31;;;20.51;37.10
75972;BME280;64651;47.540;19.088;2023-12-22T21:20:11;98395.91;;;20.58;37.47
75972;BME280;64651;47.540;19.088;2023-12-22T21:25:14;98395.91;;;20.58;38.14
75972;BME280;64651;47.540;19.088;2023-12-22T21:30:18;98407.91;;;20.58;38.73
75972;BME280;64651;47.540;19.088;2023-12-22T21:35:20;98412.69;;;20.61;38.97
75972;BME280;64651;47.540;19.088;2023-12-22T21:40:22;98438.25;;;20.63;39.00
75972;BME280;64651;47.540;19.088;2023-12-22T21:45:24;98445.44;;;20.64;39.34
75972;BME280;64651;47.540;19.088;2023-12-22T21:50:26;98449.44;;;20.63;40.29
75972;BME280;64651;47.540;19.088;2023-12-22T21:55:28;98458.59;;;20.67;40.65
75972;BME280;64651;47.540;19.088;2023-12-22T22:00:32;98469.03;;;20.67;40.84
75972;BME280;64651;47.540;19.088;2023-12-22T22:05:34;98474.19;;;20.69;40.82
75972;BME280;64651;47.540;19.088;2023-12-22T22:10:36;98458.59;;;20.67;40.68
75972;BME280;64651;47.540;19.088;2023-12-22T22:15:39;98481.38;;;20.70;40.71
75972;BME280;64651;47.540;19.088;2023-12-22T22:20:41;98470.59;;;20.68;40.83
75972;BME280;64651;47.540;19.088;2023-12-22T22:25:43;98480.59;;;20.69;40.70
75972;BME280;64651;47.540;19.088;2023-12-22T22:30:45;98461.41;;;20.67;40.66
75972;BME280;64651;47.540;19.088;2023-12-22T22:35:49;98487.78;;;20.67;40.69
75972;BME280;64651;47.540;19.088;2023-12-22T22:40:52;98495.38;;;20.70;40.73
75972;BME280;64651;47.540;19.088;2023-12-22T22:45:54;98489.00;;;20.73;40.76
75972;BME280;64651;47.540;19.088;2023-12-22T22:50:56;98479.00;;;20.72;40.80
75972;BME280;64651;47.540;19.088;2023-12-22T22:56:00;98481.41;;;20.77;40.75
75972;BME280;64651;47.540;19.088;2023-12-22T23:01:03;98485.41;;;20.76;40.61
75972;BME280;64651;47.540;19.088;2023-12-22T23:06:06;98473.84;;;20.74;40.58
75972;BME280;64651;47.540;19.088;2023-12-22T23:11:08;98470.63;;;20.75;40.53
75972;BME280;64651;47.540;19.088;2023-12-22T23:16:11;98483.03;;;20.78;40.44
75972;BME280;64651;47.540;19.088;2023-12-22T23:21:13;98512.97;;;20.77;40.45
75972;BME280;64651;47.540;19.088;2023-12-22T23:26:15;98530.97;;;20.80;40.35
75972;BME280;64651;47.540;19.088;2023-12-22T23:31:17;98514.19;;;20.80;40.36
75972;BME280;64651;47.540;19.088;2023-12-22T23:36:20;98514.97;;;20.77;40.32
75972;BME280;64651;47.540;19.088;2023-12-22T23:41:28;98514.56;;;20.78;40.29
75972;BME280;64651;47.540;19.088;2023-12-22T23:46:31;98538.13;;;20.77;40.29
75972;BME280;64651;47.540;19.088;2023-12-22T23:51:33;98518.94;;;20.76;40.26
75972;BME280;64651;47.540;19.088;2023-12-22T23:56:35;98532.91;;;20.76;40.13
